VYMD/MDL METAR and TAF weather

Enter ICAO airport designator
Station Type Date Time Source
VYMD METAR 2022/05/23 12:30 UTC NOAA

VYMD 231230Z 34010G25KT 6000 BKN017 FEW020CB OVC080 30/24 Q1000


Station Type Date Time Source
VYMD Decoded METAR 2022/05/23 12:30 UTC NOAA

Station name not available
May 23, 2022 - 08:30 AM EDT / 2022.05.23 1230 UTC
Wind: from the NNW (340 degrees) at 12 MPH (10 KT) gusting to 29 MPH (25 KT):0
Visibility: 3 mile(s):0
Sky conditions: overcast
Weather: Cumulonimbus clouds observed
Temperature: 86 F (30 C)
Heat index: 95.0 F (35.0 C):1
Dew Point: 75 F (24 C)
Relative Humidity: 70%
Pressure (altimeter): 29.53 in. Hg (1000 hPa)
ob: VYMD 231230Z 34010G25KT 6000 BKN017 FEW020CB OVC080 30/24 Q1000
cycle: 12

Station Type Date Time Source
VYMD TAF 2022/05/23 12:00 UTC NOAA

TAF VYMD 231100Z 2312/2412 14007KT 7000 BKN020 FEW025CB
TEMPO 2312/2318 32010G25KT 4000 -TSRA BKN015 FEW018CB BKN100

Example: see airport list